createdAt,value
2017-10-01T00:00:29.799Z,99.99
2017-10-01T00:01:42.294Z,99.99
2017-10-01T00:02:54.798Z,99.99
2017-10-01T00:04:06.968Z,99.99
2017-10-01T00:05:18.840Z,99.99
2017-10-01T00:06:31.338Z,99.99
2017-10-01T00:07:43.509Z,99.99
2017-10-01T00:08:55.994Z,99.99
2017-10-01T00:10:08.522Z,99.99
2017-10-01T00:11:20.396Z,99.99
2017-10-01T00:12:32.589Z,99.99
2017-10-01T00:13:44.761Z,99.99
2017-10-01T00:14:57.230Z,99.99
2017-10-01T00:16:09.371Z,99.99
2017-10-01T00:17:21.563Z,99.99
2017-10-01T00:18:33.742Z,99.99
2017-10-01T00:19:45.917Z,99.99
2017-10-01T00:20:58.086Z,99.99
2017-10-01T00:22:09.983Z,99.99
2017-10-01T00:23:21.875Z,99.99
2017-10-01T00:24:34.077Z,99.99
2017-10-01T00:25:46.569Z,99.99
2017-10-01T00:26:59.011Z,99.99
2017-10-01T00:28:11.507Z,99.99
2017-10-01T00:29:23.377Z,99.99
2017-10-01T00:30:35.849Z,99.99
2017-10-01T00:31:48.320Z,99.99
2017-10-01T00:33:00.507Z,99.99
2017-10-01T00:34:12.985Z,99.99
2017-10-01T00:35:25.456Z,99.99
2017-10-01T00:36:37.669Z,99.99
2017-10-01T00:37:50.148Z,99.99
2017-10-01T00:39:02.359Z,99.99
2017-10-01T00:40:14.538Z,99.99
2017-10-01T00:41:26.702Z,99.99
2017-10-01T00:42:39.179Z,99.99
2017-10-01T00:43:51.350Z,99.99
2017-10-01T00:45:03.821Z,99.99
2017-10-01T00:46:16.309Z,99.99
2017-10-01T00:47:28.486Z,99.99
2017-10-01T00:48:40.963Z,99.99
2017-10-01T00:49:53.146Z,99.99
2017-10-01T00:51:05.630Z,99.99
2017-10-01T00:52:17.841Z,99.99
2017-10-01T00:53:30.315Z,99.99
2017-10-01T00:54:42.486Z,99.99
2017-10-01T00:55:54.657Z,99.99
2017-10-01T00:57:06.820Z,99.99
2017-10-01T00:58:18.999Z,99.99
2017-10-01T00:59:31.511Z,99.99
2017-10-01T01:00:43.706Z,99.99
2017-10-01T01:01:55.588Z,99.99
2017-10-01T01:03:07.781Z,99.99
2017-10-01T01:04:19.677Z,99.99
2017-10-01T01:05:32.422Z,99.99
2017-10-01T01:06:44.893Z,99.99
2017-10-01T01:07:57.363Z,99.99
2017-10-01T01:09:09.539Z,99.99
2017-10-01T01:10:21.424Z,99.99
2017-10-01T01:11:33.900Z,99.99
2017-10-01T01:12:46.075Z,99.99
2017-10-01T01:13:58.571Z,99.99
2017-10-01T01:15:10.763Z,99.99
2017-10-01T01:16:22.357Z,99.99
2017-10-01T01:17:34.829Z,99.99
2017-10-01T01:18:47.001Z,99.99
2017-10-01T01:19:59.494Z,99.99
2017-10-01T01:21:11.995Z,99.99
2017-10-01T01:22:24.186Z,99.99
2017-10-01T01:23:36.661Z,99.99
2017-10-01T01:24:49.153Z,99.99
2017-10-01T01:26:01.023Z,99.99
2017-10-01T01:27:13.495Z,99.99
2017-10-01T01:28:25.665Z,99.99
2017-10-01T01:29:38.154Z,99.99
2017-10-01T01:30:50.031Z,99.99
2017-10-01T01:32:02.220Z,99.99
2017-10-01T01:33:14.396Z,99.99
2017-10-01T01:34:26.868Z,99.99
2017-10-01T01:35:39.343Z,99.99
2017-10-01T01:36:51.860Z,99.99
2017-10-01T01:38:04.334Z,99.99
2017-10-01T01:39:16.200Z,99.99
2017-10-01T01:40:28.370Z,99.99
2017-10-01T01:41:40.571Z,99.99
2017-10-01T01:42:53.016Z,99.99
2017-10-01T01:44:05.201Z,99.99
2017-10-01T01:45:17.379Z,99.99
2017-10-01T01:46:29.866Z,99.99
2017-10-01T01:47:42.353Z,99.99
2017-10-01T01:48:54.235Z,99.99
2017-10-01T01:50:06.129Z,99.99
2017-10-01T01:51:18.307Z,99.99
2017-10-01T01:52:30.477Z,99.99
2017-10-01T01:53:42.973Z,99.99
2017-10-01T01:54:55.450Z,99.99
2017-10-01T01:56:07.657Z,99.99
2017-10-01T01:57:19.836Z,99.99
2017-10-01T01:58:32.313Z,99.99
2017-10-01T01:59:44.502Z,99.99
2017-10-01T02:00:56.972Z,99.99
2017-10-01T02:02:09.468Z,99.99
2017-10-01T02:03:21.643Z,99.99
2017-10-01T02:04:34.126Z,99.99
2017-10-01T02:05:46.609Z,99.99
2017-10-01T02:06:59.142Z,99.99
2017-10-01T02:08:11.021Z,99.99
2017-10-01T02:09:23.491Z,99.99
2017-10-01T02:10:35.963Z,99.99
2017-10-01T02:11:47.861Z,99.99
2017-10-01T02:13:00.032Z,99.99
2017-10-01T02:14:12.516Z,99.99
2017-10-01T02:15:25.248Z,99.99
2017-10-01T02:16:37.758Z,99.99
2017-10-01T02:17:49.953Z,99.99
2017-10-01T02:19:02.136Z,99.99
2017-10-01T02:20:14.320Z,99.99
2017-10-01T02:21:26.515Z,99.99
2017-10-01T02:22:38.993Z,99.99
2017-10-01T02:23:51.166Z,99.99
2017-10-01T02:25:03.652Z,99.99
2017-10-01T02:26:16.149Z,99.99
2017-10-01T02:27:28.368Z,99.99
2017-10-01T02:28:40.847Z,99.99
2017-10-01T02:29:53.347Z,99.99
2017-10-01T02:31:05.857Z,99.99
2017-10-01T02:32:18.034Z,99.99
2017-10-01T02:33:30.535Z,99.99
2017-10-01T02:34:42.126Z,99.99
2017-10-01T02:35:54.296Z,99.99
2017-10-01T02:37:06.784Z,99.99
2017-10-01T02:38:18.962Z,99.99
2017-10-01T02:39:31.138Z,99.99
2017-10-01T02:40:43.329Z,99.99
2017-10-01T02:41:55.824Z,99.99
2017-10-01T02:43:08.012Z,99.99
2017-10-01T02:44:20.493Z,99.99
2017-10-01T02:45:32.989Z,99.99
2017-10-01T02:46:45.159Z,99.99
2017-10-01T02:47:57.657Z,99.99
2017-10-01T02:49:10.148Z,99.99
2017-10-01T02:50:22.324Z,99.99
2017-10-01T02:51:34.815Z,99.99
2017-10-01T02:52:46.985Z,99.99
2017-10-01T02:53:59.461Z,99.99
2017-10-01T02:55:11.654Z,99.99
2017-10-01T02:56:24.146Z,99.99
2017-10-01T02:57:36.310Z,99.99
2017-10-01T02:58:48.790Z,99.99
2017-10-01T03:00:01.284Z,99.99
2017-10-01T03:01:13.455Z,99.99
2017-10-01T03:02:25.942Z,99.99
2017-10-01T03:03:38.439Z,99.99
2017-10-01T03:04:50.322Z,99.99
2017-10-01T03:06:02.811Z,99.99
2017-10-01T03:07:15.284Z,99.99
2017-10-01T03:08:26.858Z,99.99
2017-10-01T03:09:39.352Z,99.99
2017-10-01T03:10:51.525Z,99.99
2017-10-01T03:12:03.717Z,99.99
2017-10-01T03:13:15.911Z,99.99
2017-10-01T03:14:28.406Z,99.99
2017-10-01T03:15:40.878Z,99.99
2017-10-01T03:16:53.053Z,99.99
2017-10-01T03:18:05.220Z,99.99
2017-10-01T03:19:17.716Z,99.99
2017-10-01T03:20:30.203Z,99.99
2017-10-01T03:21:42.081Z,99.99
2017-10-01T03:22:54.554Z,99.99
2017-10-01T03:24:06.750Z,99.99
2017-10-01T03:25:18.949Z,99.99
2017-10-01T03:26:31.443Z,99.99
2017-10-01T03:27:43.952Z,99.99
2017-10-01T03:28:56.129Z,99.99
2017-10-01T03:30:08.608Z,99.99
2017-10-01T03:31:21.352Z,99.99
2017-10-01T03:32:33.542Z,99.99
2017-10-01T03:33:46.015Z,99.99
2017-10-01T03:34:58.208Z,99.99
2017-10-01T03:36:10.083Z,99.99
2017-10-01T03:37:22.267Z,99.99
2017-10-01T03:38:34.149Z,99.99
2017-10-01T03:39:46.645Z,99.99
2017-10-01T03:40:59.135Z,99.99
2017-10-01T03:42:11.607Z,99.99
2017-10-01T03:43:24.078Z,99.99
2017-10-01T03:44:36.572Z,99.99
2017-10-01T03:45:49.050Z,99.99
2017-10-01T03:47:01.532Z,99.99
2017-10-01T03:48:13.709Z,99.99
2017-10-01T03:49:25.898Z,99.99
2017-10-01T03:50:38.377Z,99.99
2017-10-01T03:51:50.276Z,99.99
2017-10-01T03:53:01.843Z,99.99
2017-10-01T03:54:14.042Z,99.99
2017-10-01T03:55:26.536Z,99.99
2017-10-01T03:56:38.422Z,99.99
2017-10-01T03:57:50.600Z,99.99
2017-10-01T03:59:02.772Z,99.99
2017-10-01T04:00:15.272Z,99.99
2017-10-01T04:01:27.767Z,99.99
2017-10-01T04:02:39.982Z,99.99
2017-10-01T04:03:52.470Z,99.99
2017-10-01T04:05:04.650Z,99.99
2017-10-01T04:06:17.148Z,99.89
2017-10-01T04:07:29.346Z,98.85
2017-10-01T04:08:41.217Z,98.75
2017-10-01T04:09:53.406Z,97.99
2017-10-01T04:11:05.576Z,98.08
2017-10-01T04:12:18.047Z,97.51
2017-10-01T04:13:30.218Z,97.32
2017-10-01T04:14:42.392Z,96.65
2017-10-01T04:15:54.560Z,96.32
2017-10-01T04:17:07.055Z,95.94
2017-10-01T04:18:19.527Z,95.94
2017-10-01T04:19:31.997Z,95.08
2017-10-01T04:20:44.485Z,95.27
2017-10-01T04:21:56.370Z,94.7
2017-10-01T04:23:08.551Z,94.13
2017-10-01T04:24:20.729Z,92.98
2017-10-01T04:25:33.201Z,93.17
2017-10-01T04:26:45.071Z,93.08
2017-10-01T04:27:57.546Z,93.08
2017-10-01T04:29:10.037Z,92.89
2017-10-01T04:30:22.214Z,92.89
2017-10-01T04:31:34.386Z,92.03
2017-10-01T04:32:46.267Z,91.17
2017-10-01T04:33:58.745Z,91.17
2017-10-01T04:35:10.933Z,90.5
2017-10-01T04:36:23.717Z,90.98
2017-10-01T04:37:36.206Z,90.6
2017-10-01T04:38:48.677Z,90.89
2017-10-01T04:40:00.548Z,90.6
2017-10-01T04:41:13.036Z,90.22
2017-10-01T04:42:25.513Z,90.03
2017-10-01T04:43:37.385Z,90.31
2017-10-01T04:44:49.857Z,90.12
2017-10-01T04:46:02.052Z,89.84
2017-10-01T04:47:14.522Z,90.12
2017-10-01T04:48:26.695Z,89.75
2017-10-01T04:49:39.206Z,89.07
2017-10-01T04:50:51.384Z,89.26
2017-10-01T04:52:03.885Z,89.17
2017-10-01T04:53:15.779Z,89.17
2017-10-01T04:54:27.973Z,88.6
2017-10-01T04:55:40.159Z,88.41
2017-10-01T04:56:52.018Z,88.51
2017-10-01T04:58:04.508Z,87.93
2017-10-01T04:59:16.678Z,87.84
2017-10-01T05:00:29.175Z,87.36
2017-10-01T05:01:41.662Z,87.84
2017-10-01T05:02:54.166Z,88.31
2017-10-01T05:04:06.360Z,87.93
2017-10-01T05:05:18.834Z,87.55
2017-10-01T05:06:30.728Z,87.27
2017-10-01T05:07:42.890Z,87.46
2017-10-01T05:08:55.369Z,87.55
2017-10-01T05:10:07.564Z,87.46
2017-10-01T05:11:19.735Z,86.6
2017-10-01T05:12:32.231Z,86.88
2017-10-01T05:13:44.093Z,86.6
2017-10-01T05:14:55.965Z,87.36
2017-10-01T05:16:07.543Z,86.88
2017-10-01T05:17:20.014Z,86.6
2017-10-01T05:18:32.483Z,86.51
2017-10-01T05:19:44.653Z,86.6
2017-10-01T05:20:56.829Z,86.79
2017-10-01T05:22:09.002Z,86.6
2017-10-01T05:23:21.170Z,86.69
2017-10-01T05:24:33.666Z,86.51
2017-10-01T05:25:45.537Z,86.32
2017-10-01T05:26:58.029Z,86.6
2017-10-01T05:28:10.517Z,86.51
2017-10-01T05:29:22.712Z,86.41
2017-10-01T05:30:35.193Z,86.32
2017-10-01T05:31:47.062Z,85.93
2017-10-01T05:32:59.232Z,86.22
2017-10-01T05:34:11.705Z,85.93
2017-10-01T05:35:24.198Z,85.93
2017-10-01T05:36:36.674Z,85.46
2017-10-01T05:37:48.240Z,85.36
2017-10-01T05:39:00.712Z,85.36
2017-10-01T05:40:13.207Z,85.46
2017-10-01T05:41:25.676Z,85.17
2017-10-01T05:42:37.865Z,85.17
2017-10-01T05:43:50.347Z,85.27
2017-10-01T05:45:02.830Z,85.64
2017-10-01T05:46:15.312Z,85.46
2017-10-01T05:47:27.810Z,85.55
2017-10-01T05:48:39.994Z,85.36
2017-10-01T05:49:52.170Z,85.55
2017-10-01T05:51:04.034Z,84.98
2017-10-01T05:52:16.461Z,85.74
2017-10-01T05:53:28.633Z,85.55
2017-10-01T05:54:40.808Z,86.03
2017-10-01T05:55:52.675Z,85.55
2017-10-01T05:57:05.173Z,86.03
2017-10-01T05:58:17.044Z,86.6
2017-10-01T05:59:29.540Z,86.79
2017-10-01T06:00:42.037Z,86.22
2017-10-01T06:01:54.207Z,85.55
2017-10-01T06:03:06.398Z,85.46
2017-10-01T06:04:18.872Z,85.46
2017-10-01T06:05:30.745Z,85.08
2017-10-01T06:06:42.610Z,85.36
2017-10-01T06:07:54.773Z,84.88
2017-10-01T06:09:06.950Z,84.69
2017-10-01T06:10:19.424Z,85.08
2017-10-01T06:11:31.592Z,85.17
2017-10-01T06:12:43.465Z,84.6
2017-10-01T06:13:55.951Z,84.6
2017-10-01T06:15:08.147Z,84.79
2017-10-01T06:16:20.326Z,84.79
2017-10-01T06:17:32.798Z,84.12
2017-10-01T06:18:45.292Z,84.03
2017-10-01T06:19:57.767Z,84.22
2017-10-01T06:21:10.258Z,84.12
2017-10-01T06:22:22.754Z,84.41
2017-10-01T06:23:35.234Z,84.69
2017-10-01T06:24:47.744Z,84.79
2017-10-01T06:25:59.916Z,84.69
2017-10-01T06:27:11.785Z,84.12
2017-10-01T06:28:23.957Z,84.6
2017-10-01T06:29:36.427Z,84.69
2017-10-01T06:30:48.898Z,84.74
2017-10-01T06:32:01.369Z,84.6
2017-10-01T06:33:13.838Z,84.64
2017-10-01T06:34:26.011Z,84.92
2017-10-01T06:35:38.480Z,84.74
2017-10-01T06:36:50.352Z,84.64
2017-10-01T06:38:02.521Z,84.55
2017-10-01T06:39:14.993Z,84.83
2017-10-01T06:40:27.167Z,84.55
2017-10-01T06:41:39.677Z,85.02
2017-10-01T06:42:51.555Z,84.92
2017-10-01T06:44:03.425Z,84.74
2017-10-01T06:45:15.301Z,84.55
2017-10-01T06:46:27.784Z,84.36
2017-10-01T06:47:39.963Z,84.07
2017-10-01T06:48:52.158Z,84.26
2017-10-01T06:50:04.329Z,84.26
2017-10-01T06:51:16.203Z,84.26
2017-10-01T06:52:28.370Z,84.74
2017-10-01T06:53:40.868Z,84.64
2017-10-01T06:54:52.737Z,84.74
2017-10-01T06:56:04.906Z,84.55
2017-10-01T06:57:17.396Z,84.36
2017-10-01T06:58:29.574Z,84.07
2017-10-01T06:59:42.048Z,84.16
2017-10-01T07:00:53.913Z,84.16
2017-10-01T07:02:06.402Z,83.88
2017-10-01T07:03:18.882Z,83.78
2017-10-01T07:04:31.351Z,83.78
2017-10-01T07:05:42.622Z,83.59
2017-10-01T07:06:54.193Z,83.69
2017-10-01T07:08:06.666Z,83.4
2017-10-01T07:09:18.839Z,83.59
2017-10-01T07:10:31.005Z,84.16
2017-10-01T07:11:43.475Z,83.88
2017-10-01T07:12:55.966Z,83.69
2017-10-01T07:14:07.542Z,83.5
2017-10-01T07:15:20.015Z,83.12
2017-10-01T07:16:32.512Z,82.73
2017-10-01T07:17:44.704Z,82.73
2017-10-01T07:18:56.917Z,82.35
2017-10-01T07:20:09.395Z,81.97
2017-10-01T07:21:21.867Z,81.88
2017-10-01T07:22:34.364Z,81.88
2017-10-01T07:23:46.875Z,81.59
2017-10-01T07:24:59.370Z,81.21
2017-10-01T07:26:11.241Z,81.02
2017-10-01T07:27:23.421Z,80.73
2017-10-01T07:28:35.915Z,80.54
2017-10-01T07:29:48.103Z,80.54
2017-10-01T07:31:00.582Z,80.35
2017-10-01T07:32:13.076Z,80.07
2017-10-01T07:33:25.547Z,79.68
2017-10-01T07:34:37.422Z,79.35
2017-10-01T07:35:49.288Z,79.59
2017-10-01T07:37:01.485Z,79.25
2017-10-01T07:38:13.956Z,78.92
2017-10-01T07:39:25.551Z,78.92
2017-10-01T07:40:38.051Z,79.44
2017-10-01T07:41:50.542Z,78.96
2017-10-01T07:43:02.737Z,78.96
2017-10-01T07:44:14.607Z,79.53
2017-10-01T07:45:27.082Z,79.35
2017-10-01T07:46:39.568Z,79.15
2017-10-01T07:47:52.046Z,79.44
2017-10-01T07:49:04.542Z,79.02
2017-10-01T07:50:17.037Z,79.11
2017-10-01T07:51:28.912Z,79.11
2017-10-01T07:52:40.196Z,78.96
2017-10-01T07:53:52.709Z,78.67
2017-10-01T07:55:04.595Z,78.67
2017-10-01T07:56:16.764Z,78.49
2017-10-01T07:57:28.338Z,79.06
2017-10-01T07:58:40.533Z,78.67
2017-10-01T07:59:53.027Z,78.83
2017-10-01T08:01:05.222Z,78.58
2017-10-01T08:02:17.693Z,77.91
2017-10-01T08:03:30.183Z,77.82
2017-10-01T08:04:42.660Z,77.91
2017-10-01T08:05:54.855Z,77.53
2017-10-01T08:07:06.727Z,77.87
2017-10-01T08:08:19.200Z,77.25
2017-10-01T08:09:31.393Z,77.01
2017-10-01T08:10:43.289Z,76.77
2017-10-01T08:11:55.765Z,77.3
2017-10-01T08:13:08.258Z,76.67
2017-10-01T08:14:20.749Z,76.67
2017-10-01T08:15:33.220Z,76.77
2017-10-01T08:16:45.391Z,76.1
2017-10-01T08:17:57.562Z,76.2
2017-10-01T08:19:10.074Z,76.29
2017-10-01T08:20:22.256Z,76.1
2017-10-01T08:21:34.449Z,76.29
2017-10-01T08:22:46.944Z,76.01
2017-10-01T08:23:59.439Z,75.34
2017-10-01T08:25:11.612Z,75.43
2017-10-01T08:26:24.124Z,75.24
2017-10-01T08:27:36.294Z,75.24
2017-10-01T08:28:48.165Z,74.77
2017-10-01T08:30:00.668Z,74.48
2017-10-01T08:31:12.543Z,74.19
2017-10-01T08:32:25.026Z,74.19
2017-10-01T08:33:37.509Z,74.38
2017-10-01T08:34:50.004Z,74.29
2017-10-01T08:36:02.497Z,74.48
2017-10-01T08:37:14.991Z,73.72
2017-10-01T08:38:27.469Z,73.62
2017-10-01T08:39:39.658Z,73.81
2017-10-01T08:40:51.835Z,73.52
2017-10-01T08:42:04.325Z,73.52
2017-10-01T08:43:16.797Z,73.62
2017-10-01T08:44:29.295Z,73.52
2017-10-01T08:45:41.478Z,73.52
2017-10-01T08:46:53.350Z,73.81
2017-10-01T08:48:05.528Z,73.72
2017-10-01T08:49:17.716Z,73.14
2017-10-01T08:50:29.944Z,73.14
2017-10-01T08:51:42.115Z,72.76
2017-10-01T08:52:54.587Z,73.14
2017-10-01T08:54:06.758Z,73.05
2017-10-01T08:55:18.932Z,73.05
2017-10-01T08:56:30.526Z,72.96
2017-10-01T08:57:42.711Z,72.96
2017-10-01T08:58:55.194Z,73.05
2017-10-01T09:00:07.384Z,72.38
2017-10-01T09:01:19.854Z,72.28
2017-10-01T09:02:32.332Z,72.19
2017-10-01T09:03:44.824Z,72.28
2017-10-01T09:04:57.026Z,72.09
2017-10-01T09:06:09.519Z,71.94
2017-10-01T09:07:22.000Z,71.56
2017-10-01T09:08:34.179Z,71.27
2017-10-01T09:09:46.051Z,71.27
2017-10-01T09:10:57.620Z,71.66
2017-10-01T09:12:10.092Z,70.98
2017-10-01T09:13:22.587Z,70.95
2017-10-01T09:14:34.758Z,71.08
2017-10-01T09:15:47.234Z,71.14
2017-10-01T09:16:59.416Z,71.18
2017-10-01T09:18:11.295Z,70.98
2017-10-01T09:19:23.794Z,70.98
2017-10-01T09:20:36.277Z,70.98
2017-10-01T09:21:48.455Z,70.42
2017-10-01T09:23:00.652Z,70.13
2017-10-01T09:24:13.189Z,70.51
2017-10-01T09:25:25.393Z,70.42
2017-10-01T09:26:37.864Z,69.93
2017-10-01T09:27:50.051Z,69.93
2017-10-01T09:29:02.222Z,69.65
2017-10-01T09:30:14.403Z,69.65
2017-10-01T09:31:26.901Z,69.74
2017-10-01T09:32:39.099Z,69.84
2017-10-01T09:33:50.988Z,69.56
2017-10-01T09:35:01.634Z,69.37
2017-10-01T09:36:13.830Z,68.98
2017-10-01T09:37:26.300Z,68.51
2017-10-01T09:38:38.470Z,68.12
2017-10-01T09:39:51.208Z,67.74
2017-10-01T09:41:03.705Z,68.03
2017-10-01T09:42:15.888Z,68.32
2017-10-01T09:43:27.770Z,68.12
2017-10-01T09:44:40.252Z,68.22
2017-10-01T09:45:52.749Z,67.83
2017-10-01T09:47:04.942Z,67.74
2017-10-01T09:48:17.432Z,67.46
2017-10-01T09:49:29.624Z,66.88
2017-10-01T09:50:41.528Z,66.31
2017-10-01T09:51:53.398Z,66.41
2017-10-01T09:53:05.560Z,66.12
2017-10-01T09:54:17.742Z,65.58
2017-10-01T09:55:29.935Z,64.91
2017-10-01T09:56:42.437Z,64.43
2017-10-01T09:57:54.618Z,64.05
2017-10-01T09:59:07.101Z,63.67
2017-10-01T10:00:18.673Z,63.29
2017-10-01T10:01:30.563Z,62.81
2017-10-01T10:02:42.459Z,62.81
2017-10-01T10:03:54.361Z,62.62
2017-10-01T10:05:06.856Z,62.15
2017-10-01T10:06:19.026Z,62.37
2017-10-01T10:07:30.609Z,62.08
2017-10-01T10:08:42.787Z,62.08
2017-10-01T10:09:54.657Z,61.89
2017-10-01T10:11:06.545Z,61.89
2017-10-01T10:12:19.024Z,61.6
2017-10-01T10:13:31.500Z,61.89
2017-10-01T10:14:43.990Z,61.03
2017-10-01T10:15:56.462Z,60.64
2017-10-01T10:17:08.932Z,59.98
2017-10-01T10:18:21.109Z,59.69
2017-10-01T10:19:33.603Z,60.27
2017-10-01T10:20:46.094Z,60.2
2017-10-01T10:21:57.964Z,59.72
2017-10-01T10:23:10.454Z,59.34
2017-10-01T10:24:22.933Z,59.81
2017-10-01T10:25:35.426Z,59.91
2017-10-01T10:26:47.314Z,59.63
2017-10-01T10:27:59.185Z,59.63
2017-10-01T10:29:11.381Z,59.72
2017-10-01T10:30:23.576Z,59.34
2017-10-01T10:31:36.072Z,59.27
2017-10-01T10:32:47.968Z,59.27
2017-10-01T10:34:00.146Z,59.08
2017-10-01T10:35:12.322Z,59.75
2017-10-01T10:36:24.517Z,59.84
2017-10-01T10:37:36.408Z,60.99
2017-10-01T10:38:48.607Z,62.52
2017-10-01T10:40:00.500Z,62.71
2017-10-01T10:41:12.675Z,63.1
2017-10-01T10:42:24.865Z,63.19
2017-10-01T10:43:37.036Z,64.15
2017-10-01T10:44:49.513Z,64.15
2017-10-01T10:46:02.028Z,64.91
2017-10-01T10:47:14.540Z,65.11
2017-10-01T10:48:26.719Z,65.77
2017-10-01T10:49:39.221Z,65.2
2017-10-01T10:50:51.410Z,65.2
2017-10-01T10:52:03.898Z,65.39
2017-10-01T10:53:16.076Z,64.82
2017-10-01T10:54:28.563Z,65.01
2017-10-01T10:55:40.447Z,65.01
2017-10-01T10:56:52.312Z,66.06
2017-10-01T10:58:04.789Z,66.35
2017-10-01T10:59:16.984Z,66.92
2017-10-01T11:00:29.194Z,67.78
2017-10-01T11:01:41.070Z,67.11
2017-10-01T11:02:53.266Z,67.3
2017-10-01T11:04:05.744Z,67.97
2017-10-01T11:05:17.933Z,67.59
2017-10-01T11:06:30.422Z,68.26
2017-10-01T11:07:42.924Z,69.02
2017-10-01T11:08:55.120Z,68.74
2017-10-01T11:10:07.296Z,68.84
2017-10-01T11:11:18.868Z,69.6
2017-10-01T11:12:30.757Z,69.7
2017-10-01T11:13:42.952Z,70.07
2017-10-01T11:14:54.823Z,69.21
2017-10-01T11:16:07.038Z,68.35
2017-10-01T11:17:19.513Z,68.74
2017-10-01T11:18:31.388Z,68.16
2017-10-01T11:19:43.254Z,68.74
2017-10-01T11:20:55.431Z,68.64
2017-10-01T11:22:07.314Z,68.45
2017-10-01T11:23:19.493Z,67.69
2017-10-01T11:24:31.712Z,67.88
2017-10-01T11:25:43.883Z,67.88
2017-10-01T11:26:56.378Z,67.3
2017-10-01T11:28:08.251Z,66.54
2017-10-01T11:29:20.745Z,66.92
2017-10-01T11:30:32.923Z,66.63
2017-10-01T11:31:44.503Z,65.87
2017-10-01T11:32:56.683Z,65.11
2017-10-01T11:34:08.571Z,64.91
2017-10-01T11:35:20.755Z,64.25
2017-10-01T11:36:32.948Z,64.37
2017-10-01T11:37:45.146Z,64.95
2017-10-01T11:38:57.588Z,65.14
2017-10-01T11:40:09.784Z,65.33
2017-10-01T11:41:21.977Z,65.14
2017-10-01T11:42:34.151Z,65.14
2017-10-01T11:43:46.647Z,66
2017-10-01T11:44:59.165Z,67.05
2017-10-01T11:46:11.059Z,67.53
2017-10-01T11:47:23.556Z,68.29
2017-10-01T11:48:35.731Z,68.96
2017-10-01T11:49:47.939Z,69.73
2017-10-01T11:51:00.117Z,69.25
2017-10-01T11:52:12.592Z,68.77
2017-10-01T11:53:24.784Z,70.3
2017-10-01T11:54:36.055Z,70.21
2017-10-01T11:55:48.546Z,71.22
2017-10-01T11:57:00.748Z,70.75
2017-10-01T11:58:12.942Z,70.84
2017-10-01T11:59:24.831Z,70.36
2017-10-01T12:00:37.007Z,69.5
2017-10-01T12:01:49.509Z,70.27
2017-10-01T12:03:02.008Z,70.07
2017-10-01T12:04:14.511Z,68.93
2017-10-01T12:05:26.995Z,69.21
2017-10-01T12:06:38.879Z,69.41
2017-10-01T12:07:51.082Z,69.21
2017-10-01T12:09:03.570Z,69.7
2017-10-01T12:10:16.051Z,68.93
2017-10-01T12:11:28.549Z,69.21
2017-10-01T12:12:41.058Z,68.74
2017-10-01T12:13:52.936Z,68.45
2017-10-01T12:15:04.508Z,68.35
2017-10-01T12:16:17.006Z,67.97
2017-10-01T12:17:28.564Z,67.78
2017-10-01T12:18:41.048Z,67.11
2017-10-01T12:19:53.244Z,66.83
2017-10-01T12:21:05.439Z,66.73
2017-10-01T12:22:17.934Z,67.21
2017-10-01T12:23:30.129Z,67.49
2017-10-01T12:24:42.624Z,69.21
2017-10-01T12:25:54.817Z,68.74
2017-10-01T12:27:06.713Z,68.74
2017-10-01T12:28:19.200Z,68.74
2017-10-01T12:29:31.420Z,69.6
2017-10-01T12:30:43.925Z,69.98
2017-10-01T12:31:56.095Z,69.41
2017-10-01T12:33:07.965Z,69.21
2017-10-01T12:34:19.840Z,67.49
2017-10-01T12:35:32.349Z,67.49
2017-10-01T12:36:44.528Z,66.92
2017-10-01T12:37:57.022Z,69.64
2017-10-01T12:39:08.894Z,69.64
2017-10-01T12:40:21.064Z,70.11
2017-10-01T12:41:33.542Z,69.15
2017-10-01T12:42:45.734Z,68.96
2017-10-01T12:43:58.252Z,69.92
2017-10-01T12:45:10.148Z,70.87
2017-10-01T12:46:22.321Z,69.82
2017-10-01T12:47:34.514Z,69.44
2017-10-01T12:48:46.990Z,69.25
2017-10-01T12:49:59.497Z,69.44
2017-10-01T12:51:11.676Z,68.96
2017-10-01T12:52:24.176Z,69.15
2017-10-01T12:53:36.348Z,69.54
2017-10-01T12:54:48.542Z,69.54
2017-10-01T12:56:00.432Z,68.77
2017-10-01T12:57:12.608Z,68.87
2017-10-01T12:58:24.799Z,69.73
2017-10-01T12:59:36.970Z,69.06
2017-10-01T13:00:49.141Z,70.01
2017-10-01T13:02:00.728Z,71.07
2017-10-01T13:03:12.924Z,71.16
2017-10-01T13:04:25.409Z,70.68
2017-10-01T13:05:37.590Z,70.11
2017-10-01T13:06:49.470Z,70.68
2017-10-01T13:08:01.687Z,74.99
2017-10-01T13:09:13.564Z,74.13
2017-10-01T13:10:26.073Z,74.7
2017-10-01T13:11:38.558Z,73.55
2017-10-01T13:12:51.089Z,72.12
2017-10-01T13:14:03.573Z,74.13
2017-10-01T13:15:16.064Z,72.5
2017-10-01T13:16:28.251Z,73.36
2017-10-01T13:17:40.434Z,72.6
2017-10-01T13:18:52.625Z,72.12
2017-10-01T13:20:04.864Z,72.12
2017-10-01T13:21:16.742Z,73.46
2017-10-01T13:22:28.637Z,73.75
2017-10-01T13:23:40.209Z,72.79
2017-10-01T13:24:51.782Z,73.17
2017-10-01T13:26:03.676Z,73.55
2017-10-01T13:27:15.270Z,73.94
2017-10-01T13:28:27.747Z,73.17
2017-10-01T13:29:40.237Z,72.31
2017-10-01T13:30:52.108Z,71.07
2017-10-01T13:32:04.596Z,70.78
2017-10-01T13:33:16.478Z,70.5
2017-10-01T13:34:28.669Z,70.11
2017-10-01T13:35:40.857Z,70.21
2017-10-01T13:36:53.052Z,71.39
2017-10-01T13:38:05.548Z,70.72
2017-10-01T13:39:17.733Z,70.15
2017-10-01T13:40:30.228Z,70.15
2017-10-01T13:41:42.723Z,69.67
2017-10-01T13:42:54.893Z,70.81
2017-10-01T13:44:07.085Z,71.68
2017-10-01T13:45:19.261Z,70.72
2017-10-01T13:46:31.756Z,71.39
2017-10-01T13:47:43.627Z,72.63
2017-10-01T13:48:55.195Z,72.83
2017-10-01T13:50:07.389Z,74.16
2017-10-01T13:51:19.562Z,73.21
2017-10-01T13:52:32.047Z,73.4
2017-10-01T13:53:44.224Z,72.16
2017-10-01T13:54:56.463Z,72.06
2017-10-01T13:56:08.946Z,71.87
2017-10-01T13:57:21.142Z,71.87
2017-10-01T13:58:33.632Z,73.4
2017-10-01T13:59:46.054Z,72.63
2017-10-01T14:00:58.541Z,73.3
2017-10-01T14:02:10.737Z,73.97
2017-10-01T14:03:23.232Z,75.26
2017-10-01T14:04:35.728Z,74.01
2017-10-01T14:05:47.907Z,74.68
2017-10-01T14:07:00.081Z,75.83
2017-10-01T14:08:12.291Z,74.2
2017-10-01T14:09:23.567Z,74.11
2017-10-01T14:10:35.742Z,76.02
2017-10-01T14:11:47.627Z,75.26
2017-10-01T14:12:59.204Z,75.64
2017-10-01T14:14:11.693Z,76.02
2017-10-01T14:15:23.889Z,74.58
2017-10-01T14:16:36.392Z,74.77
2017-10-01T14:17:48.265Z,74.01
2017-10-01T14:19:00.467Z,74.49
2017-10-01T14:20:12.957Z,76.4
2017-10-01T14:21:25.450Z,78.99
2017-10-01T14:22:37.323Z,79.28
2017-10-01T14:23:49.809Z,77.55
2017-10-01T14:25:02.337Z,77.17
2017-10-01T14:26:14.833Z,76.69
2017-10-01T14:27:27.007Z,77.08
2017-10-01T14:28:38.878Z,75.93
2017-10-01T14:29:50.751Z,75.73
2017-10-01T14:31:03.245Z,75.26
2017-10-01T14:32:15.741Z,74.77
2017-10-01T14:33:28.232Z,73.82
2017-10-01T14:34:40.127Z,75.45
2017-10-01T14:35:51.714Z,74.87
2017-10-01T14:37:03.920Z,75.26
2017-10-01T14:38:16.106Z,74.01
2017-10-01T14:39:28.002Z,74.11
2017-10-01T14:40:40.205Z,73.91
2017-10-01T14:41:52.401Z,74.01
2017-10-01T14:43:04.876Z,73.72
2017-10-01T14:44:17.367Z,74.11
2017-10-01T14:45:29.880Z,74.2
2017-10-01T14:46:42.376Z,74.58
2017-10-01T14:47:54.860Z,75.16
2017-10-01T14:49:07.056Z,75.07
2017-10-01T14:50:19.246Z,75.16
2017-10-01T14:51:31.417Z,75.93
2017-10-01T14:52:43.918Z,75.07
2017-10-01T14:53:56.406Z,76.27
2017-10-01T14:55:08.581Z,75.7
2017-10-01T14:56:20.752Z,75.31
2017-10-01T14:57:33.248Z,75.51
2017-10-01T14:58:45.119Z,75.51
2017-10-01T14:59:57.628Z,75.7
2017-10-01T15:01:10.138Z,74.74
2017-10-01T15:02:22.635Z,75.02
2017-10-01T15:03:35.128Z,76.18
2017-10-01T15:04:47.313Z,76.75
2017-10-01T15:05:59.507Z,75.12
2017-10-01T15:07:11.385Z,75.22
2017-10-01T15:08:23.256Z,74.13
2017-10-01T15:09:35.452Z,74.61
2017-10-01T15:10:47.627Z,74.9
2017-10-01T15:11:59.516Z,75.37
2017-10-01T15:13:10.788Z,75.56
2017-10-01T15:14:22.977Z,74.41
2017-10-01T15:15:34.854Z,73.94
2017-10-01T15:16:47.056Z,73.46
2017-10-01T15:17:59.563Z,74.51
2017-10-01T15:19:11.750Z,74.04
2017-10-01T15:20:23.955Z,74.32
2017-10-01T15:21:35.833Z,73.55
2017-10-01T15:22:48.308Z,73.27
2017-10-01T15:24:00.501Z,73.17
2017-10-01T15:25:12.696Z,73.36
2017-10-01T15:26:25.196Z,73.46
2017-10-01T15:27:37.103Z,74.13
2017-10-01T15:28:48.975Z,74.51
2017-10-01T15:30:01.456Z,74.13
2017-10-01T15:31:13.964Z,74.61
2017-10-01T15:32:26.448Z,74.51